Time;durP1;ratioP1;P1;durP2;ratioP2;P2;SDS_P1;SDS_P2;PMS_P1;PMS_P2;Temp;Humidity;BMP_temperature;BMP_pressure;BME280_temperature;BME280_humidity;BME280_pressure;Samples;Min_cycle;Max_cycle;Signal;HPM_P1;HPM_P2
2023/05/27 00:01:01;;;;;;;11.05;3.80;;;;;;;9.51;71.11;102773.72;5108849;28;20055;-73
2023/05/27 00:03:46;;;;;;;12.20;3.58;;;;;;;9.43;71.28;102778.94;5106354;28;20060;-73
2023/05/27 00:06:32;;;;;;;11.05;3.60;;;;;;;9.39;71.69;102787.72;5097624;28;20623;-72
2023/05/27 00:09:17;;;;;;;16.85;3.65;;;;;;;9.31;71.73;102778.00;5103032;28;20056;-72
2023/05/27 00:12:03;;;;;;;18.55;4.30;;;;;;;9.28;72.02;102780.63;5107598;28;20052;-71
2023/05/27 00:14:49;;;;;;;13.95;4.00;;;;;;;9.25;72.09;102774.47;5096570;28;20055;-72
2023/05/27 00:17:35;;;;;;;12.98;4.22;;;;;;;9.19;72.19;102777.06;5105516;27;20048;-71
2023/05/27 00:20:22;;;;;;;11.15;3.90;;;;;;;9.17;72.38;102772.66;5103691;27;20150;-72
2023/05/27 00:23:07;;;;;;;11.38;3.60;;;;;;;9.17;72.39;102782.31;5102589;28;20139;-72
2023/05/27 00:25:53;;;;;;;14.63;3.83;;;;;;;9.13;72.60;102781.41;5101275;28;20846;-72
2023/05/27 00:28:38;;;;;;;16.80;4.28;;;;;;;9.07;72.43;102780.50;5104724;28;20104;-72
2023/05/27 00:31:23;;;;;;;14.85;3.70;;;;;;;9.08;73.06;102777.00;5075591;28;20052;-72
2023/05/27 00:34:11;;;;;;;13.70;4.20;;;;;;;9.07;72.95;102770.84;5107430;28;20439;-72
2023/05/27 00:36:57;;;;;;;14.70;3.53;;;;;;;9.04;73.01;102773.47;5096365;27;20048;-71
2023/05/27 00:39:42;;;;;;;13.07;3.80;;;;;;;9.00;73.24;102771.66;5090170;28;20053;-72
2023/05/27 00:42:28;;;;;;;15.30;3.67;;;;;;;8.97;73.22;102772.53;5096470;28;20048;-72
2023/05/27 00:45:13;;;;;;;9.90;3.75;;;;;;;8.91;73.38;102775.09;5107424;28;20760;-71
2023/05/27 00:48:04;;;;;;;16.40;4.07;;;;;;;8.88;73.90;102776.84;5109766;28;20055;-72
2023/05/27 00:50:49;;;;;;;11.75;3.90;;;;;;;8.91;73.85;102777.72;5131448;27;20044;-73
2023/05/27 00:53:44;;;;;;;11.88;3.88;;;;;;;8.88;73.88;102772.47;5120440;27;20064;-73
2023/05/27 00:56:30;;;;;;;;;;;;;;;8.84;74.04;102768.94;5122314;27;20453;-72
2023/05/27 00:59:15;;;;;;;14.40;4.22;;;;;;;8.81;74.07;102781.16;5108592;28;19924;-72
2023/05/27 01:02:01;;;;;;;13.05;3.85;;;;;;;8.70;74.23;102768.81;5088029;28;20416;-71
2023/05/27 01:04:46;;;;;;;15.85;3.50;;;;;;;8.69;74.75;102769.69;5091835;28;20087;-71
2023/05/27 01:08:11;;;;;;;14.57;3.75;;;;;;;8.64;74.65;102766.13;5102225;28;20210;-71
2023/05/27 01:10:57;;;;;;;13.10;3.90;;;;;;;8.58;75.34;102762.56;5071281;28;20056;-70
2023/05/27 01:13:51;;;;;;;8.50;3.67;;;;;;;8.59;75.46;102769.59;5088940;28;20060;-72
2023/05/27 01:16:44;;;;;;;13.30;4.60;;;;;;;8.57;75.66;102761.69;5105314;28;20060;-72
2023/05/27 01:19:35;;;;;;;13.43;3.70;;;;;;;8.53;75.47;102762.53;5107007;28;20149;-72
2023/05/27 01:22:28;;;;;;;11.25;3.92;;;;;;;8.47;75.70;102749.31;5099249;28;21175;-71
2023/05/27 01:25:14;;;;;;;16.30;4.25;;;;;;;8.44;76.01;102750.16;5091819;28;20151;-72
2023/05/27 01:28:00;;;;;;;13.50;4.15;;;;;;;8.41;76.32;102742.25;5090798;28;20036;-72
2023/05/27 01:30:45;;;;;;;12.35;4.03;;;;;;;8.48;76.57;102749.34;5107760;27;20075;-72
2023/05/27 01:33:37;;;;;;;11.20;4.00;;;;;;;8.45;76.54;102738.75;5094974;28;20619;-72
2023/05/27 01:36:28;;;;;;;16.83;4.22;;;;;;;8.44;76.40;102738.75;5102767;28;20169;-72
2023/05/27 01:39:15;;;;;;;14.30;4.15;;;;;;;8.39;76.58;102742.22;5105761;28;20131;-72
2023/05/27 01:42:03;;;;;;;14.80;4.43;;;;;;;8.34;77.21;102743.94;5097580;28;20047;-72
2023/05/27 01:44:51;;;;;;;14.55;4.20;;;;;;;8.33;77.01;102752.69;5109218;28;20056;-72
2023/05/27 01:47:38;;;;;;;14.63;4.28;;;;;;;8.28;77.46;102745.63;5108145;28;20052;-72
2023/05/27 01:50:23;;;;;;;13.80;3.80;;;;;;;8.28;77.31;102749.13;5106026;28;20138;-70
2023/05/27 01:53:11;;;;;;;13.05;4.28;;;;;;;8.23;77.54;102751.72;5094367;28;20079;-70
2023/05/27 01:55:57;;;;;;;15.68;4.43;;;;;;;8.18;77.72;102749.91;5094626;28;20063;-70
2023/05/27 01:58:42;;;;;;;13.07;4.22;;;;;;;8.16;77.93;102754.25;5077473;28;20056;-70
2023/05/27 02:01:28;;;;;;;15.85;5.25;;;;;;;8.15;78.43;102748.09;5092957;28;20119;-70
2023/05/27 02:04:14;;;;;;;15.55;4.10;;;;;;;8.15;78.30;102742.84;5104198;28;20055;-70
2023/05/27 02:07:00;;;;;;;12.82;4.50;;;;;;;8.18;78.30;102739.41;5108533;28;20453;-70
2023/05/27 02:09:45;;;;;;;12.63;4.32;;;;;;;8.21;78.72;102734.16;5093937;28;20643;-71
2023/05/27 02:12:31;;;;;;;12.07;4.45;;;;;;;8.23;78.73;102738.59;5107666;28;20052;-71
2023/05/27 02:15:16;;;;;;;12.93;3.97;;;;;;;8.26;78.75;102742.97;5096010;28;20663;-71
2023/05/27 02:18:02;;;;;;;19.25;5.00;;;;;;;8.30;78.44;102742.13;5090961;28;20154;-70
2023/05/27 02:20:48;;;;;;;12.73;3.80;;;;;;;8.26;78.28;102734.19;5094533;28;20060;-70
2023/05/27 02:23:33;;;;;;;11.40;4.22;;;;;;;8.24;78.62;102735.06;5064456;28;20061;-71
2023/05/27 02:26:19;;;;;;;13.65;4.47;;;;;;;8.21;78.50;102736.78;5068803;28;20049;-70
2023/05/27 02:29:04;;;;;;;13.25;4.55;;;;;;;8.14;78.51;102727.94;5067399;28;20494;-71
2023/05/27 02:31:50;;;;;;;13.48;4.30;;;;;;;8.07;78.82;102739.28;5067053;28;20825;-71
2023/05/27 02:34:37;;;;;;;15.48;4.47;;;;;;;8.05;78.96;102736.63;5068505;28;20057;-71
2023/05/27 02:37:24;;;;;;;13.55;3.95;;;;;;;8.03;79.17;102743.63;5067734;28;20806;-71
2023/05/27 02:40:11;;;;;;;14.80;4.53;;;;;;;8.04;79.46;102741.84;5067109;28;20049;-71
2023/05/27 02:42:56;;;;;;;14.02;4.53;;;;;;;8.01;79.47;102750.59;5067557;28;20052;-71
2023/05/27 02:45:42;;;;;;;16.25;5.05;;;;;;;8.06;79.60;102748.00;5069586;28;20068;-71
2023/05/27 02:48:27;;;;;;;17.65;4.72;;;;;;;8.03;79.55;102753.25;5066965;28;20233;-71
2023/05/27 02:51:13;;;;;;;17.83;4.30;;;;;;;7.97;79.79;102746.19;5065033;28;20060;-71
2023/05/27 02:53:58;;;;;;;14.30;4.50;;;;;;;8.00;79.82;102745.34;5066116;28;20052;-72
2023/05/27 02:56:44;;;;;;;14.65;5.20;;;;;;;7.92;79.65;102753.13;5074646;28;20053;-72
2023/05/27 02:59:29;;;;;;;12.73;5.00;;;;;;;7.81;80.08;102757.38;5069692;28;20052;-72
2023/05/27 03:02:15;;;;;;;12.80;4.97;;;;;;;7.73;80.47;102752.03;5065456;28;20057;-71
2023/05/27 03:05:00;;;;;;;15.05;4.43;;;;;;;7.68;80.72;102745.84;5066885;28;20061;-72
2023/05/27 03:07:46;;;;;;;17.02;4.90;;;;;;;7.65;81.19;102751.03;5057848;28;20057;-72
2023/05/27 03:10:32;;;;;;;20.02;5.30;;;;;;;7.60;81.32;102750.97;5066802;28;20057;-71
2023/05/27 03:13:18;;;;;;;19.83;5.18;;;;;;;7.55;81.61;102752.69;5067601;28;20171;-72
2023/05/27 03:16:03;;;;;;;15.15;5.05;;;;;;;7.58;81.87;102744.84;5067559;28;20053;-72
2023/05/27 03:18:49;;;;;;;14.57;5.57;;;;;;;7.57;81.68;102758.84;5065170;28;20613;-72
2023/05/27 03:21:35;;;;;;;15.07;5.28;;;;;;;7.55;81.78;102748.31;5071582;28;20056;-71
2023/05/27 03:24:21;;;;;;;17.52;5.88;;;;;;;7.51;81.96;102749.16;5087967;28;20106;-71
2023/05/27 03:27:06;;;;;;;16.40;5.10;;;;;;;7.49;82.20;102750.84;5087809;28;20052;-71
2023/05/27 03:29:55;;;;;;;19.45;6.20;;;;;;;7.47;82.38;102752.56;5086860;28;20939;-70
2023/05/27 03:32:40;;;;;;;14.63;5.22;;;;;;;7.43;82.56;102754.28;5105996;28;20479;-70
2023/05/27 03:35:25;;;;;;;13.88;5.13;;;;;;;7.42;82.89;102752.50;5108300;28;20079;-71
2023/05/27 03:38:11;;;;;;;17.48;5.47;;;;;;;7.46;82.91;102746.47;5106376;28;20048;-70
2023/05/27 03:40:56;;;;;;;16.52;5.53;;;;;;;7.46;82.81;102754.34;5089335;28;20057;-72
2023/05/27 03:43:42;;;;;;;15.77;5.68;;;;;;;7.50;82.88;102749.09;5092340;28;20102;-71
2023/05/27 03:46:28;;;;;;;16.35;5.15;;;;;;;7.53;82.66;102746.53;5079828;28;20167;-71
2023/05/27 03:49:14;;;;;;;15.60;5.22;;;;;;;7.53;82.95;102742.16;5094119;28;20063;-70
2023/05/27 03:51:59;;;;;;;16.83;5.45;;;;;;;7.57;82.86;102728.22;5092728;28;20048;-71
2023/05/27 03:54:47;;;;;;;17.63;5.93;;;;;;;7.63;82.71;102732.66;5100151;28;20532;-71
2023/05/27 03:57:32;;;;;;;16.92;5.80;;;;;;;7.65;82.36;102727.41;5091478;28;20135;-70
2023/05/27 04:00:18;;;;;;;17.20;5.53;;;;;;;7.68;82.09;102723.06;5108253;28;20055;-70
2023/05/27 04:03:06;;;;;;;21.17;5.90;;;;;;;7.68;81.94;102730.09;5104973;28;20052;-71
2023/05/27 04:05:51;;;;;;;17.35;5.35;;;;;;;7.65;82.31;102719.53;5107973;28;20719;-71
2023/05/27 04:08:39;;;;;;;17.98;6.07;;;;;;;7.68;82.27;102722.22;5107031;28;20048;-71
2023/05/27 04:11:27;;;;;;;20.50;5.57;;;;;;;7.72;82.42;102730.13;5103138;27;20832;-70
2023/05/27 04:14:12;;;;;;;19.02;5.65;;;;;;;7.78;82.24;102724.94;5108113;28;20063;-70
2023/05/27 04:16:58;;;;;;;12.05;4.80;;;;;;;7.80;81.90;102727.63;5107409;28;20055;-70
2023/05/27 04:19:43;;;;;;;17.95;5.72;;;;;;;7.82;81.99;102725.88;5108152;28;20059;-70
2023/05/27 04:22:29;;;;;;;13.07;5.05;;;;;;;7.84;82.09;102721.50;5072014;28;20092;-70
2023/05/27 04:25:16;;;;;;;15.98;5.50;;;;;;;7.88;82.03;102717.19;5086689;28;20472;-72
2023/05/27 04:28:18;;;;;;;13.93;4.53;;;;;;;7.98;82.06;102720.78;5087075;28;20051;-72
2023/05/27 04:31:05;;;;;;;16.38;5.63;;;;;;;8.05;81.63;102718.25;5072341;28;20099;-73
2023/05/27 04:34:00;;;;;;;16.55;5.65;;;;;;;8.16;81.68;102710.47;5090513;28;20096;-71
2023/05/27 04:36:49;;;;;;;14.35;5.35;;;;;;;8.28;80.85;102708.81;5084772;28;20540;-71
2023/05/27 04:39:45;;;;;;;16.80;5.05;;;;;;;8.32;80.83;102711.50;5090959;28;20531;-71
2023/05/27 04:42:32;;;;;;;14.05;5.13;;;;;;;8.42;80.86;102709.84;5090017;28;20052;-71
2023/05/27 04:45:18;;;;;;;14.32;4.70;;;;;;;8.84;79.56;102710.19;5090035;28;20142;-71
2023/05/27 04:48:04;;;;;;;16.23;5.60;;;;;;;10.21;75.25;102709.84;5087444;28;20849;-72
2023/05/27 04:50:52;;;;;;;14.02;4.60;;;;;;;10.70;72.30;102702.84;5089371;28;20809;-71
2023/05/27 04:53:38;;;;;;;14.18;5.03;;;;;;;10.34;72.37;102702.81;5101932;28;20051;-71
2023/05/27 04:56:23;;;;;;;14.40;5.05;;;;;;;10.02;73.04;102692.25;5089798;28;20052;-71
2023/05/27 04:59:16;;;;;;;16.00;4.85;;;;;;;9.74;74.10;102697.44;5092286;28;20671;-72
2023/05/27 05:02:11;;;;;;;13.20;4.15;;;;;;;9.58;74.95;102691.25;5089256;28;20052;-72
2023/05/27 05:05:14;;;;;;;14.07;4.75;;;;;;;9.45;75.70;102699.13;5085570;28;20056;-74
2023/05/27 05:08:00;;;;;;;17.27;5.00;;;;;;;9.50;75.85;102700.88;5105295;27;20059;-70
2023/05/27 05:10:47;;;;;;;14.57;4.78;;;;;;;9.71;75.71;102700.09;5085751;27;20052;-69
2023/05/27 05:13:34;;;;;;;19.13;5.15;;;;;;;10.01;74.60;102682.59;5089646;28;20047;-70
2023/05/27 05:16:19;;;;;;;14.95;5.00;;;;;;;10.06;74.11;102688.75;5103557;28;20061;-70
2023/05/27 05:19:04;;;;;;;12.57;4.60;;;;;;;10.12;74.25;102688.75;5081452;28;20099;-70
2023/05/27 05:21:54;;;;;;;11.70;4.20;;;;;;;10.16;74.16;102685.22;5103177;28;20056;-70
2023/05/27 05:24:39;;;;;;;16.48;4.60;;;;;;;10.71;73.11;102684.38;5105147;28;20502;-70
2023/05/27 05:27:25;;;;;;;17.48;5.68;;;;;;;12.50;67.86;102678.19;5099982;27;20048;-61
2023/05/27 05:30:12;;;;;;;12.73;4.47;;;;;;;14.37;62.10;102673.16;5088146;28;20535;-70
2023/05/27 05:32:58;;;;;;;12.25;3.75;;;;;;;15.64;57.45;102670.69;5105546;28;20044;-70
2023/05/27 05:35:48;;;;;;;15.85;4.18;;;;;;;16.55;53.96;102664.97;5089035;28;20179;-70
2023/05/27 05:38:44;;;;;;;10.05;3.38;;;;;;;17.64;51.99;102657.44;5089932;28;20908;-70
2023/05/27 05:41:31;;;;;;;15.15;4.10;;;;;;;18.15;48.40;102658.47;5098376;28;20056;-70
2023/05/27 05:44:17;;;;;;;9.65;3.53;;;;;;;18.47;47.59;102658.28;5101768;28;20051;-70
2023/05/27 05:47:02;;;;;;;11.77;3.60;;;;;;;18.96;46.63;102658.38;5127602;28;20056;-70
2023/05/27 05:49:49;;;;;;;10.27;3.80;;;;;;;19.28;44.87;102650.09;5093687;28;20087;-70
2023/05/27 05:52:34;;;;;;;11.70;3.67;;;;;;;19.47;43.62;102644.88;5099499;28;20151;-70
2023/05/27 05:55:21;;;;;;;10.18;3.28;;;;;;;19.51;43.20;102659.88;5083228;28;20467;-70
2023/05/27 05:58:07;;;;;;;13.95;3.45;;;;;;;19.33;43.76;102661.44;5088186;28;20051;-71
2023/05/27 06:00:53;;;;;;;10.75;2.95;;;;;;;19.43;43.51;102648.59;5098276;28;20052;-71
2023/05/27 06:04:03;;;;;;;16.40;4.13;;;;;;;19.65;43.55;102651.28;5082883;28;20052;-71
2023/05/27 06:06:54;;;;;;;11.68;3.45;;;;;;;19.81;42.50;102656.91;5089995;28;20052;-71
2023/05/27 06:09:56;;;;;;;14.85;3.78;;;;;;;18.80;44.23;102660.69;5089490;28;20056;-71
2023/05/27 06:12:50;;;;;;;13.10;3.38;;;;;;;16.26;49.73;102668.38;5082117;28;20056;-71
2023/05/27 06:15:36;;;;;;;12.23;3.75;;;;;;;14.55;54.64;102668.44;5106028;27;20508;-71
2023/05/27 06:18:21;;;;;;;19.20;4.00;;;;;;;13.60;58.06;102661.09;5105282;28;20063;-70
2023/05/27 06:21:07;;;;;;;15.02;3.78;;;;;;;13.12;60.65;102664.31;5106582;27;20824;-71
2023/05/27 06:24:12;;;;;;;15.35;3.85;;;;;;;12.99;62.63;102666.25;5108198;27;20048;-70
2023/05/27 06:27:01;;;;;;;12.38;4.13;;;;;;;12.81;62.54;102673.50;5086420;27;20060;-71
2023/05/27 06:29:47;;;;;;;14.43;4.45;;;;;;;12.54;63.75;102670.22;5095512;28;20052;-70
2023/05/27 06:32:38;;;;;;;16.60;4.90;;;;;;;12.42;64.49;102670.31;5105357;28;20052;-71
2023/05/27 06:35:23;;;;;;;16.38;5.10;;;;;;;12.34;64.99;102666.88;5108555;28;20055;-70
2023/05/27 06:38:08;;;;;;;16.42;4.80;;;;;;;12.29;65.64;102647.53;5102837;28;20556;-70
2023/05/27 06:40:54;;;;;;;15.18;4.63;;;;;;;12.34;66.17;102651.00;5088208;28;20079;-70
2023/05/27 06:43:41;;;;;;;14.02;4.47;;;;;;;12.37;65.67;102656.28;5103658;28;20131;-70
2023/05/27 06:46:49;;;;;;;14.73;4.60;;;;;;;12.31;66.09;102651.91;5084310;28;20131;-70
2023/05/27 06:49:49;;;;;;;14.70;4.82;;;;;;;12.34;66.48;102649.25;5106355;27;20052;-70
2023/05/27 06:52:35;;;;;;;17.80;5.30;;;;;;;12.39;66.25;102644.78;5090993;28;20052;-70
2023/05/27 06:55:30;;;;;;;12.57;4.30;;;;;;;12.37;66.43;102645.69;5104968;28;20044;-70
2023/05/27 06:58:18;;;;;;;16.05;4.80;;;;;;;12.46;67.11;102644.75;5105971;28;20056;-70
2023/05/27 07:01:14;;;;;;;14.50;4.85;;;;;;;12.64;66.56;102633.09;5091476;28;20158;-70
2023/05/27 07:04:04;;;;;;;20.02;4.97;;;;;;;12.78;65.86;102632.94;5106193;28;20040;-70
2023/05/27 07:07:00;;;;;;;13.45;4.90;;;;;;;12.82;65.89;102630.22;5093759;28;20505;-70
2023/05/27 07:09:46;;;;;;;13.77;4.85;;;;;;;12.96;65.46;102632.75;5092392;28;20062;-70
2023/05/27 07:12:31;;;;;;;12.23;4.28;;;;;;;13.02;65.07;102629.16;5109037;28;20060;-70
2023/05/27 07:15:34;;;;;;;16.73;5.07;;;;;;;13.08;64.62;102631.72;5099789;28;20048;-70
2023/05/27 07:18:19;;;;;;;17.77;5.00;;;;;;;13.10;64.69;102627.28;5106976;28;20566;-70
2023/05/27 07:21:06;;;;;;;13.15;5.28;;;;;;;13.11;65.35;102629.03;5096378;28;20056;-70
2023/05/27 07:23:53;;;;;;;11.20;4.30;;;;;;;13.22;64.62;102633.31;5105552;27;20056;-70
2023/05/27 07:26:47;;;;;;;15.90;5.05;;;;;;;13.15;65.48;102627.22;5106948;28;20127;-70
2023/05/27 07:29:33;;;;;;;14.48;4.60;;;;;;;13.34;65.25;102630.47;5091590;28;20056;-70
2023/05/27 07:32:31;;;;;;;16.92;5.20;;;;;;;13.51;64.61;102622.34;5107336;27;20160;-69
2023/05/27 07:35:16;;;;;;;16.88;5.00;;;;;;;13.74;64.51;102622.00;5108427;28;20056;-70
2023/05/27 07:38:02;;;;;;;15.25;5.13;;;;;;;13.92;64.10;102618.19;5090776;28;20044;-69
2023/05/27 07:40:49;;;;;;;10.85;4.55;;;;;;;14.07;63.13;102619.72;5107096;28;20048;-70
2023/05/27 07:43:35;;;;;;;17.15;5.53;;;;;;;14.22;62.88;102617.72;5094039;28;20052;-70
2023/05/27 07:46:20;;;;;;;14.05;4.75;;;;;;;14.39;62.10;102610.31;5089914;28;20044;-70
2023/05/27 07:49:05;;;;;;;15.55;5.07;;;;;;;14.51;60.88;102608.34;5090297;28;20048;-70
2023/05/27 07:51:55;;;;;;;21.10;5.18;;;;;;;14.53;62.27;102612.72;5087754;28;20103;-70
2023/05/27 07:54:41;;;;;;;11.70;4.63;;;;;;;14.72;61.26;102599.13;5084422;28;20509;-70
2023/05/27 07:57:41;;;;;;;14.45;5.00;;;;;;;14.79;60.30;102594.56;5097703;28;20056;-73
2023/05/27 08:00:27;;;;;;;15.48;4.82;;;;;;;14.78;60.55;102596.38;5078373;28;20052;-72
2023/05/27 08:03:12;;;;;;;14.75;4.57;;;;;;;14.85;60.32;102597.13;5088946;27;20056;-73
2023/05/27 08:06:30;;;;;;;14.10;4.80;;;;;;;14.90;60.44;102592.56;5051319;28;20160;-71
2023/05/27 08:09:18;;;;;;;15.93;4.70;;;;;;;15.15;59.93;102586.75;5103452;28;20047;-72
2023/05/27 08:12:35;;;;;;;18.80;4.95;;;;;;;15.29;59.41;102586.44;5089031;28;20062;-72
2023/05/27 08:15:47;;;;;;;16.55;4.78;;;;;;;15.44;58.46;102582.56;5094627;28;20083;-72
2023/05/27 08:19:00;;;;;;;15.13;4.97;;;;;;;15.48;59.05;102576.25;5089100;28;20048;-72
2023/05/27 08:21:59;;;;;;;18.15;5.07;;;;;;;15.60;59.29;102569.78;5079899;28;20061;-71
2023/05/27 08:25:09;;;;;;;12.18;4.65;;;;;;;15.77;57.94;102570.25;5080025;28;20052;-73
2023/05/27 08:28:04;;;;;;;13.73;4.50;;;;;;;15.89;57.61;102566.44;5079872;28;20136;-72
2023/05/27 08:31:00;;;;;;;17.70;4.80;;;;;;;15.90;57.25;102546.03;5084328;28;20747;-73
2023/05/27 08:33:54;;;;;;;14.13;4.40;;;;;;;15.97;57.09;102555.59;5081613;28;20135;-70
2023/05/27 08:36:40;;;;;;;11.70;4.60;;;;;;;16.03;56.15;102547.44;5082333;28;20895;-70
2023/05/27 08:39:26;;;;;;;11.73;4.65;;;;;;;16.09;56.72;102549.06;5081976;28;20048;-70
2023/05/27 08:42:22;;;;;;;17.60;4.68;;;;;;;16.23;56.18;102543.38;5082458;28;20063;-71
2023/05/27 08:45:10;;;;;;;15.98;4.28;;;;;;;16.41;56.35;102536.69;5083369;28;20065;-72
2023/05/27 08:47:57;;;;;;;15.05;4.75;;;;;;;16.49;56.30;102534.69;5076255;28;20071;-72
2023/05/27 08:50:50;;;;;;;20.20;5.15;;;;;;;16.75;55.82;102531.25;5085709;28;20041;-73
2023/05/27 08:53:35;;;;;;;16.23;4.88;;;;;;;16.90;55.26;102523.75;5099355;28;20078;-71
2023/05/27 08:56:23;;;;;;;12.43;4.57;;;;;;;17.02;54.20;102519.84;5097468;27;20787;-72
2023/05/27 08:59:09;;;;;;;12.48;4.20;;;;;;;17.11;53.37;102516.03;5101183;28;20041;-72
2023/05/27 09:01:57;;;;;;;13.15;4.85;;;;;;;17.08;53.21;102514.34;5082593;28;20049;-72
2023/05/27 09:04:42;;;;;;;8.85;3.80;;;;;;;17.10;52.92;102503.63;5085926;28;20052;-72
2023/05/27 09:07:27;;;;;;;12.48;4.07;;;;;;;17.22;51.92;102493.44;5077360;27;20598;-72
2023/05/27 09:10:13;;;;;;;13.00;4.32;;;;;;;17.41;52.59;102502.66;5071352;28;20052;-73
2023/05/27 09:12:59;;;;;;;15.38;4.45;;;;;;;17.56;52.88;102501.28;5085989;28;20045;-72
2023/05/27 09:15:45;;;;;;;18.13;4.93;;;;;;;17.79;52.74;102497.81;5083834;28;20056;-72
2023/05/27 09:18:35;;;;;;;13.77;4.38;;;;;;;18.00;51.32;102490.91;5085281;28;20747;-72
2023/05/27 09:21:20;;;;;;;15.77;4.43;;;;;;;18.12;50.98;102498.44;5081282;28;20178;-72
2023/05/27 09:24:05;;;;;;;15.82;4.60;;;;;;;18.26;49.55;102491.75;5105769;28;20122;-72
2023/05/27 09:26:55;;;;;;;15.30;4.80;;;;;;;18.33;49.96;102489.72;5103103;28;20060;-73
2023/05/27 09:29:41;;;;;;;13.70;4.10;;;;;;;18.44;50.71;102490.22;5101937;27;20926;-73
2023/05/27 09:32:30;;;;;;;14.68;4.40;;;;;;;18.73;49.81;102488.22;5101252;28;20063;-72
2023/05/27 09:35:17;;;;;;;13.43;4.25;;;;;;;18.83;49.95;102492.28;5099693;28;20504;-72
2023/05/27 09:38:07;;;;;;;15.25;4.50;;;;;;;18.94;50.32;102486.53;5097940;28;20943;-72
2023/05/27 09:40:52;;;;;;;17.08;4.38;;;;;;;19.16;49.41;102483.00;5101363;28;20189;-72
2023/05/27 09:43:38;;;;;;;15.02;4.15;;;;;;;19.27;47.78;102475.41;5105223;28;20784;-72
2023/05/27 09:46:31;;;;;;;15.27;4.03;;;;;;;19.32;47.33;102468.09;5096065;28;20052;-72
2023/05/27 09:49:20;;;;;;;16.35;4.13;;;;;;;19.38;47.58;102466.97;5099481;27;20503;-72
2023/05/27 09:52:07;;;;;;;13.48;3.80;;;;;;;19.49;47.01;102463.81;5105276;27;20060;-71
2023/05/27 09:54:54;;;;;;;10.50;3.90;;;;;;;19.65;47.40;102450.66;5104631;28;20178;-70
2023/05/27 09:57:43;;;;;;;17.05;4.22;;;;;;;19.83;46.24;102451.66;5107089;28;20190;-73
2023/05/27 10:00:31;;;;;;;17.50;4.72;;;;;;;19.80;46.97;102443.78;5105754;28;20060;-72
2023/05/27 10:03:21;;;;;;;14.05;3.65;;;;;;;19.95;46.97;102450.28;5102000;28;20055;-73
2023/05/27 10:06:09;;;;;;;14.13;3.85;;;;;;;20.16;44.50;102441.28;5095377;28;20048;-73
2023/05/27 10:08:55;;;;;;;11.57;3.40;;;;;;;20.22;42.10;102442.81;5104579;28;20175;-71
2023/05/27 10:11:41;;;;;;;11.25;3.35;;;;;;;20.16;42.98;102446.63;5102446;28;20068;-71
2023/05/27 10:14:26;;;;;;;11.43;3.67;;;;;;;20.15;44.00;102439.53;5105275;27;20044;-72
2023/05/27 10:17:12;;;;;;;10.20;3.20;;;;;;;20.29;43.10;102441.59;5103055;28;20052;-73
2023/05/27 10:19:57;;;;;;;13.77;4.03;;;;;;;20.14;42.74;102432.44;5105140;28;20729;-73
2023/05/27 10:22:45;;;;;;;12.15;3.50;;;;;;;20.10;42.35;102430.84;5107862;28;20064;-73
2023/05/27 10:25:40;;;;;;;19.00;3.85;;;;;;;20.11;43.45;102432.56;5099832;28;20685;-73
2023/05/27 10:28:28;;;;;;;11.50;3.42;;;;;;;20.15;41.44;102435.97;5107781;28;22192;-72
2023/05/27 10:31:19;;;;;;;11.02;3.15;;;;;;;20.12;42.92;102423.63;5089641;28;20072;-73
2023/05/27 10:34:08;;;;;;;13.82;3.58;;;;;;;20.28;42.30;102426.44;5104925;28;20048;-73
2023/05/27 10:37:00;;;;;;;17.30;3.67;;;;;;;20.29;42.20;102417.47;5126615;28;20060;-72
2023/05/27 10:39:55;;;;;;;10.60;3.75;;;;;;;20.47;41.64;102426.47;5117537;28;20068;-73
2023/05/27 10:42:40;;;;;;;13.63;3.38;;;;;;;20.57;41.29;102416.16;5109482;27;20448;-73
2023/05/27 10:45:34;;;;;;;21.17;4.38;;;;;;;20.72;42.19;102416.38;5105904;28;20060;-73
2023/05/27 10:48:21;;;;;;;12.60;3.40;;;;;;;20.91;42.49;102409.22;5094987;28;20064;-72
2023/05/27 10:51:07;;;;;;;11.48;3.40;;;;;;;21.18;40.97;102402.56;5106742;27;20917;-72
2023/05/27 10:53:54;;;;;;;12.20;3.38;;;;;;;21.24;38.75;102404.91;5104708;28;20452;-73
2023/05/27 10:57:02;;;;;;;12.13;2.72;;;;;;;21.09;36.81;102398.50;5109204;28;20530;-72
2023/05/27 10:59:54;;;;;;;11.23;3.70;;;;;;;21.21;37.82;102397.91;5107667;28;20056;-73
2023/05/27 11:02:44;;;;;;;10.38;3.15;;;;;;;21.28;38.59;102393.09;5096880;27;20128;-73
2023/05/27 11:05:32;;;;;;;20.58;4.30;;;;;;;21.29;39.43;102384.09;5089396;28;20057;-73
2023/05/27 11:08:17;;;;;;;15.82;4.18;;;;;;;21.39;38.18;102385.38;5090630;28;20111;-73
2023/05/27 11:11:11;;;;;;;13.52;3.45;;;;;;;21.37;37.50;102383.69;5099502;28;20085;-73
2023/05/27 11:13:56;;;;;;;10.90;2.95;;;;;;;21.29;38.06;102378.75;5089583;28;20135;-73
2023/05/27 11:16:51;;;;;;;13.10;3.22;;;;;;;21.47;37.97;102370.66;5073212;28;20126;-74
2023/05/27 11:19:39;;;;;;;11.18;3.40;;;;;;;21.56;37.29;102367.50;5097388;28;20047;-74
2023/05/27 11:22:25;;;;;;;11.73;3.33;;;;;;;21.67;38.53;102362.47;5104813;28;20060;-73
2023/05/27 11:25:10;;;;;;;17.83;3.60;;;;;;;21.93;37.33;102352.13;5089406;28;20056;-73
2023/05/27 11:27:56;;;;;;;12.45;2.95;;;;;;;22.03;37.26;102352.50;5103148;28;20141;-73
2023/05/27 11:30:41;;;;;;;12.35;3.75;;;;;;;22.06;36.57;102341.59;5107702;28;20228;-74
2023/05/27 11:33:35;;;;;;;12.10;3.25;;;;;;;22.00;36.11;102340.13;5105492;28;20060;-73
2023/05/27 11:36:26;;;;;;;8.90;2.97;;;;;;;22.02;37.14;102338.22;5097723;27;20052;-72
2023/05/27 11:39:18;;;;;;;11.82;3.10;;;;;;;22.11;36.82;102335.97;5082205;28;20048;-73
2023/05/27 11:42:08;;;;;;;10.00;2.90;;;;;;;22.20;35.11;102330.09;5106895;28;20860;-74
2023/05/27 11:44:55;;;;;;;10.63;2.88;;;;;;;22.12;35.64;102325.13;5102581;28;20865;-73
2023/05/27 11:47:47;;;;;;;10.48;3.45;;;;;;;22.21;35.70;102323.75;5104744;28;20098;-73
2023/05/27 11:50:34;;;;;;;10.68;3.22;;;;;;;22.38;35.44;102316.56;5105636;28;20052;-72
2023/05/27 11:53:19;;;;;;;11.35;3.40;;;;;;;22.49;35.49;102325.75;5108809;28;20135;-74
2023/05/27 11:56:05;;;;;;;10.20;3.20;;;;;;;22.47;34.53;102303.50;5102417;28;20044;-71
2023/05/27 11:58:50;;;;;;;11.00;3.13;;;;;;;22.44;34.33;102306.34;5104616;28;20131;-73
2023/05/27 12:01:36;;;;;;;9.23;3.00;;;;;;;22.41;33.73;102303.84;5090208;28;20048;-72
2023/05/27 12:04:21;;;;;;;10.25;3.33;;;;;;;22.43;34.38;102306.47;5094766;28;20525;-74
2023/05/27 12:07:07;;;;;;;12.30;2.97;;;;;;;22.41;34.43;102293.09;5097118;28;20055;-73
2023/05/27 12:10:05;;;;;;;12.13;3.20;;;;;;;22.49;34.88;102296.19;5091932;28;20500;-74
2023/05/27 12:12:50;;;;;;;13.07;3.30;;;;;;;22.60;35.04;102286.63;5104992;28;20052;-73
2023/05/27 12:15:35;;;;;;;11.32;3.38;;;;;;;22.64;35.63;102282.81;5090246;28;20060;-73
2023/05/27 12:18:21;;;;;;;10.63;3.40;;;;;;;22.66;35.31;102275.53;5106858;28;20606;-73
2023/05/27 12:21:06;;;;;;;11.77;3.03;;;;;;;22.70;35.07;102273.53;5104266;28;20044;-73
2023/05/27 12:23:51;;;;;;;15.07;3.40;;;;;;;22.83;35.34;102269.19;5105024;27;20052;-73
2023/05/27 12:26:37;;;;;;;10.52;2.88;;;;;;;23.09;33.91;102269.41;5106809;28;20087;-73
2023/05/27 12:29:24;;;;;;;11.23;3.47;;;;;;;23.12;34.18;102263.84;5102571;28;20048;-74
2023/05/27 12:32:09;;;;;;;11.15;3.30;;;;;;;23.10;36.01;102266.59;5091195;28;20048;-73
2023/05/27 12:34:54;;;;;;;13.68;3.35;;;;;;;23.42;35.12;102263.78;5107372;28;20544;-73
2023/05/27 12:37:40;;;;;;;11.23;3.38;;;;;;;23.47;34.37;102262.66;5103799;28;20048;-73
2023/05/27 12:40:26;;;;;;;11.05;3.28;;;;;;;23.38;33.52;102259.56;5108576;27;20440;-73
2023/05/27 12:43:12;;;;;;;11.63;3.10;;;;;;;23.38;33.21;102247.94;5102245;28;20090;-74
2023/05/27 12:45:58;;;;;;;10.20;3.15;;;;;;;23.46;32.95;102250.16;5106580;28;20052;-73
2023/05/27 12:48:44;;;;;;;10.52;3.25;;;;;;;23.50;31.53;102243.63;5105754;28;20044;-73
2023/05/27 12:51:30;;;;;;;14.40;5.13;;;;;;;23.31;32.52;102238.53;5101862;28;20055;-72
2023/05/27 12:54:15;;;;;;;10.32;2.90;;;;;;;23.29;32.77;102229.69;5107974;28;20056;-73
2023/05/27 12:57:04;;;;;;;10.88;3.38;;;;;;;23.40;32.48;102235.25;5108221;28;20040;-74
2023/05/27 12:59:50;;;;;;;11.75;3.55;;;;;;;23.37;32.90;102227.38;5106497;28;20044;-74